Amstenrade, Netherlands
Current Conditions -  °F | °C
As of 12:50 PM on Thursday 30 Oct 2014 (Local Time) from ETNG Reporting Station
Clear Clear  
Wind Chill: 63°   Ceiling: Unl
Heat Index: 63°   Visibility: 6mi
Dew Point: 57°   Wind: 2mph
Humidity: 82%   Direction: 210°SSW
Pressure: 30.21"   Gusts: NA
Location:  50.94°N, 5.92°E
Report Text: ETNG 301150Z 21002KT CAVOK 17/14 Q1023 NOSIG
Loading
Personal Weather Stations






























Interactive Weather Map
Tropical Storm Tracking
New forecast layout! Learn more

10-Day Weather Forecast

Advertisements
Track Severe Weather on mobile